Kezdőlap
METAR-TAF:

METAR-TAF

Repülőterek :

Moundou, Csád

földrajzi szélesség: 08-37N, földrajzi hosszúság: 016-04E, magasság: 428 m

Jelenlegi meteorológiai megfigyelések

A jelentés 16 órával és 22 perccel ezelõtt készült, 09:00 UTC
Nyugat-délnyugati szél 6 kt
Hőmérséklet 34°C
Páratartalom 47%
Légköri nyomás 1011 hPa
Látótávolság 10 km, vagy több
felhőtlen 1500 m magasságban, és nincs gomolyfelhõ

METAR: FTTD 040900Z 24006KT CAVOK 34/21 Q1011

Idő: 02:22 (01:22 UTC)


TAF: hiányzik

Meteorológiai megfigyelések és előrejelzések több, mint 4000 repülőtéren (METAR és TAF jelentéseket).

A térképen piros és sárga pontok jelzik az elérhető meteorológiai állomásokat.

Mozgassa az egeret a pont fölött, hogy megjelenjen az állomás neve.

Azután kattintson az időjárási megfigyelések és előrejelzések megtekintéséhez.

A térkép megváltoztatása: kattintson a fekete keresztel jelölt zöld gombra ráközelítéshez, a vonallal jelölt zöld gombra távolításhoz, vagy a zöld nyilakra a szomszédos térképek eléréséhez.


METAR-TAF: